Time;durP1;ratioP1;P1;durP2;ratioP2;P2;SDS_P1;SDS_P2;PMS_P1;PMS_P2;Temp;Humidity;BMP_temperature;BMP_pressure;BME280_temperature;BME280_humidity;BME280_pressure;Samples;Min_cycle;Max_cycle;Signal;HPM_P1;HPM_P2
2021/12/20 00:04:39;;;;;;;13.77;12.33;;;6.20;48.70;;;;;;10294084;28;20230;-76
2021/12/20 00:09:43;;;;;;;14.90;13.30;;;6.30;48.90;;;;;;10294891;28;20234;-75
2021/12/20 00:14:47;;;;;;;14.23;12.70;;;6.30;48.90;;;;;;10295757;28;20235;-76
2021/12/20 00:19:50;;;;;;;14.07;12.57;;;6.30;48.70;;;;;;10294075;28;20238;-75
2021/12/20 00:24:54;;;;;;;13.57;12.20;;;6.40;48.70;;;;;;10294635;28;20247;-76
2021/12/20 00:29:57;;;;;;;13.93;12.17;;;6.40;48.80;;;;;;10292683;28;20743;-75
2021/12/20 00:35:01;;;;;;;15.27;12.93;;;6.40;48.60;;;;;;10293962;28;20235;-77
2021/12/20 00:40:22;;;;;;;14.43;12.87;;;6.50;48.60;;;;;;10293817;28;20315;-75
2021/12/20 00:45:27;;;;;;;14.57;13.00;;;6.50;48.60;;;;;;10298829;28;20282;-75
2021/12/20 00:50:30;;;;;;;15.30;13.23;;;6.50;48.60;;;;;;10295446;28;20610;-75
2021/12/20 00:55:35;;;;;;;14.43;12.93;;;6.40;48.50;;;;;;10293298;28;20240;-76
2021/12/20 01:00:42;;;;;;;14.87;13.37;;;6.40;48.60;;;;;;10296218;28;20231;-75
2021/12/20 01:05:46;;;;;;;15.43;13.23;;;6.40;48.70;;;;;;10302784;28;20249;-75
2021/12/20 01:10:54;;;;;;;15.00;13.17;;;6.40;48.70;;;;;;10298303;28;20719;-75
2021/12/20 01:16:01;;;;;;;15.60;13.97;;;6.40;48.80;;;;;;10307039;28;20246;-76
2021/12/20 01:21:04;;;;;;;14.43;12.60;;;6.40;48.80;;;;;;10304062;28;20712;-75
2021/12/20 01:26:09;;;;;;;15.80;14.07;;;6.30;48.70;;;;;;10303625;28;20234;-76
2021/12/20 01:31:12;;;;;;;15.97;14.27;;;6.30;48.90;;;;;;10307003;28;20234;-76
2021/12/20 01:36:15;;;;;;;14.70;12.73;;;6.30;48.80;;;;;;10304026;28;20266;-75
2021/12/20 01:41:19;;;;;;;15.73;14.03;;;6.40;48.90;;;;;;10303670;28;20235;-75
2021/12/20 01:46:24;;;;;;;15.53;13.90;;;6.40;48.90;;;;;;10299256;28;20227;-76
2021/12/20 01:51:45;;;;;;;14.33;12.83;;;6.40;49.00;;;;;;10299521;28;20231;-76
2021/12/20 01:56:49;;;;;;;15.90;14.20;;;6.40;48.90;;;;;;10302658;28;20219;-75
2021/12/20 02:01:53;;;;;;;16.87;14.60;;;6.40;49.00;;;;;;10301760;28;20724;-75
2021/12/20 02:06:56;;;;;;;15.50;12.83;;;6.40;48.80;;;;;;10301616;28;20227;-75
2021/12/20 02:12:01;;;;;;;16.73;13.57;;;6.40;48.80;;;;;;10301069;28;20239;-76
2021/12/20 02:17:04;;;;;;;15.30;13.67;;;6.40;48.90;;;;;;10298897;28;20223;-75
2021/12/20 02:22:09;;;;;;;16.63;14.67;;;6.40;48.80;;;;;;10300747;28;20262;-75
2021/12/20 02:27:12;;;;;;;15.43;13.30;;;6.40;48.90;;;;;;10299597;28;20235;-76
2021/12/20 02:37:37;;;;;;;14.77;12.57;;;6.50;48.80;;;;;;10300801;28;20228;-76
2021/12/20 02:42:42;;;;;;;15.70;13.67;;;6.50;48.90;;;;;;10298511;28;20235;-75
2021/12/20 02:47:48;;;;;;;14.57;12.27;;;6.50;48.80;;;;;;10296074;28;20251;-75
2021/12/20 02:52:53;;;;;;;16.50;13.67;;;6.50;49.00;;;;;;10296965;28;20244;-76
2021/12/20 02:57:56;;;;;;;15.50;13.73;;;6.50;48.90;;;;;;10297723;28;20235;-75
2021/12/20 03:02:59;;;;;;;15.87;14.17;;;6.50;48.80;;;;;;10298893;28;20239;-75
2021/12/20 03:08:05;;;;;;;15.13;13.20;;;6.60;48.70;;;;;;10293621;28;20275;-75
2021/12/20 03:13:09;;;;;;;16.93;13.90;;;6.60;48.70;;;;;;10294471;28;20235;-75
2021/12/20 03:18:12;;;;;;;16.47;14.47;;;6.60;48.60;;;;;;10293701;28;20244;-75
2021/12/20 03:23:17;;;;;;;16.17;14.10;;;6.60;48.70;;;;;;10298205;28;20239;-75
2021/12/20 03:28:20;;;;;;;15.80;13.13;;;6.60;48.80;;;;;;10298876;28;20227;-76
2021/12/20 03:33:23;;;;;;;15.10;13.40;;;6.60;48.70;;;;;;10297578;28;20235;-76
2021/12/20 03:38:28;;;;;;;17.93;13.97;;;6.60;48.60;;;;;;10300036;28;20599;-75
2021/12/20 03:43:31;;;;;;;15.73;14.03;;;6.60;48.70;;;;;;10293705;28;20246;-75
2021/12/20 03:48:35;;;;;;;16.87;14.17;;;6.50;48.60;;;;;;10296649;28;20232;-75
2021/12/20 03:53:40;;;;;;;18.90;15.70;;;6.50;49.00;;;;;;10295606;28;20709;-75
2021/12/20 03:58:43;;;;;;;17.43;14.87;;;6.40;49.00;;;;;;10296170;28;20231;-76
2021/12/20 04:03:46;;;;;;;16.47;14.43;;;6.40;49.30;;;;;;10294150;28;20235;-75
2021/12/20 04:08:51;;;;;;;16.77;13.97;;;6.40;49.30;;;;;;10296768;28;20231;-75
2021/12/20 04:13:56;;;;;;;16.40;13.67;;;6.40;49.30;;;;;;10294957;28;20239;-76
2021/12/20 04:18:59;;;;;;;17.33;14.27;;;6.40;49.30;;;;;;10294197;28;20314;-75
2021/12/20 04:24:05;;;;;;;16.80;13.90;;;6.40;49.30;;;;;;10297483;28;20244;-75
2021/12/20 04:29:09;;;;;;;16.33;13.63;;;6.40;49.70;;;;;;10298248;28;20254;-75
2021/12/20 04:34:12;;;;;;;19.20;15.63;;;6.40;49.30;;;;;;10294494;28;20234;-75
2021/12/20 04:39:20;;;;;;;16.50;13.40;;;6.40;49.40;;;;;;10305404;28;20226;-76
2021/12/20 04:44:23;;;;;;;17.17;14.30;;;6.40;49.60;;;;;;10305205;28;20240;-75
2021/12/20 04:49:26;;;;;;;17.00;14.43;;;6.40;49.70;;;;;;10303488;28;20234;-75
2021/12/20 04:54:31;;;;;;;15.33;12.97;;;6.40;49.70;;;;;;10304995;28;20578;-76
2021/12/20 04:59:34;;;;;;;17.50;14.10;;;6.40;49.70;;;;;;10303566;28;20237;-76
2021/12/20 05:04:37;;;;;;;16.63;14.43;;;6.40;49.60;;;;;;10304369;28;20227;-75
2021/12/20 05:09:42;;;;;;;15.07;13.47;;;6.40;49.70;;;;;;10308039;28;20242;-75
2021/12/20 05:14:46;;;;;;;16.60;12.50;;;6.30;49.60;;;;;;10305610;28;20238;-75
2021/12/20 05:19:49;;;;;;;13.63;11.23;;;6.30;49.40;;;;;;10307128;28;20250;-75
2021/12/20 05:24:54;;;;;;;13.93;10.53;;;6.30;49.60;;;;;;10307905;28;20258;-76
2021/12/20 05:29:59;;;;;;;12.87;10.30;;;6.20;49.50;;;;;;10312030;28;20235;-76
2021/12/20 05:35:02;;;;;;;11.43;9.80;;;6.20;49.50;;;;;;10299814;28;20254;-76
2021/12/20 05:40:10;;;;;;;12.33;9.67;;;6.20;49.50;;;;;;10309163;28;20615;-75
2021/12/20 05:45:14;;;;;;;12.17;8.87;;;6.30;49.60;;;;;;10306017;28;20621;-76
2021/12/20 05:50:20;;;;;;;12.03;9.40;;;6.30;49.60;;;;;;10300307;28;20231;-76
2021/12/20 05:55:25;;;;;;;13.80;9.97;;;6.40;49.40;;;;;;10312403;28;20243;-75
2021/12/20 06:00:28;;;;;;;10.67;8.73;;;6.40;49.00;;;;;;10298878;28;20237;-77
2021/12/20 06:05:31;;;;;;;11.53;9.00;;;6.50;49.00;;;;;;10311548;28;20239;-76
2021/12/20 06:10:39;;;;;;;11.10;9.10;;;6.50;49.60;;;;;;10314126;28;20615;-76
2021/12/20 06:15:42;;;;;;;14.63;11.87;;;6.50;49.40;;;;;;10310860;28;20227;-77
2021/12/20 06:20:46;;;;;;;14.30;11.17;;;6.50;49.10;;;;;;10311420;28;20597;-77
2021/12/20 06:25:50;;;;;;;12.47;10.57;;;6.50;49.10;;;;;;10317523;28;20639;-76
2021/12/20 06:30:53;;;;;;;12.87;11.40;;;6.60;49.90;;;;;;10317467;28;20239;-76
2021/12/20 06:35:56;;;;;;;12.40;11.10;;;6.60;49.10;;;;;;10315744;28;20238;-76
2021/12/20 06:41:01;;;;;;;13.83;12.33;;;6.60;49.10;;;;;;10319535;28;20237;-77
2021/12/20 06:46:04;;;;;;;14.73;10.93;;;6.60;49.00;;;;;;10318393;28;20230;-76
2021/12/20 06:51:07;;;;;;;13.93;12.27;;;6.70;48.80;;;;;;10319217;28;20236;-76
2021/12/20 06:56:13;;;;;;;15.63;12.77;;;6.70;48.80;;;;;;10325483;28;20227;-76
2021/12/20 07:01:16;;;;;;;16.43;14.50;;;6.70;48.80;;;;;;10327942;28;20365;-76
2021/12/20 07:06:19;;;;;;;18.73;16.73;;;6.70;48.90;;;;;;10328198;28;20701;-76
2021/12/20 07:11:24;;;;;;;15.77;14.07;;;6.70;49.00;;;;;;10319002;28;20245;-76
2021/12/20 07:16:31;;;;;;;16.37;13.33;;;6.80;49.00;;;;;;10320435;28;20230;-76
2021/12/20 07:21:35;;;;;;;15.63;12.57;;;6.80;48.90;;;;;;10320903;28;20249;-77
2021/12/20 07:26:42;;;;;;;14.33;12.17;;;6.80;48.80;;;;;;10322526;28;20234;-76
2021/12/20 07:31:45;;;;;;;14.57;12.80;;;6.90;48.80;;;;;;10314550;28;20591;-76
2021/12/20 07:36:50;;;;;;;18.13;14.47;;;6.90;48.90;;;;;;10322716;28;20615;-76
2021/12/20 07:41:55;;;;;;;15.30;13.17;;;6.90;48.70;;;;;;10323667;28;20326;-76
2021/12/20 07:46:58;;;;;;;19.20;15.63;;;6.90;48.80;;;;;;10322407;28;20227;-76
2021/12/20 07:52:01;;;;;;;16.43;14.17;;;6.90;48.80;;;;;;10328566;28;20235;-77
2021/12/20 07:57:06;;;;;;;16.50;14.77;;;6.90;48.70;;;;;;10321724;28;21715;-76
2021/12/20 08:02:09;;;;;;;18.10;13.33;;;6.90;48.80;;;;;;10325241;28;20252;-77
2021/12/20 08:07:13;;;;;;;18.23;16.27;;;7.00;48.80;;;;;;10320573;28;20230;-76
2021/12/20 08:12:18;;;;;;;14.43;11.97;;;6.90;48.90;;;;;;10325821;28;20245;-76
2021/12/20 08:17:21;;;;;;;18.17;13.97;;;7.00;48.90;;;;;;10331841;28;20240;-76
2021/12/20 08:22:25;;;;;;;16.53;13.30;;;7.00;48.80;;;;;;10340698;28;20234;-76
2021/12/20 08:27:31;;;;;;;15.10;12.80;;;7.00;48.70;;;;;;10330703;28;20311;-76
2021/12/20 08:32:34;;;;;;;16.77;13.70;;;7.10;48.70;;;;;;10326234;28;20239;-76
2021/12/20 08:37:37;;;;;;;16.97;14.00;;;7.10;48.60;;;;;;10329518;28;20237;-77
2021/12/20 08:42:44;;;;;;;15.90;13.97;;;7.00;48.60;;;;;;10327837;28;20237;-76
2021/12/20 08:47:47;;;;;;;17.03;14.00;;;7.10;48.70;;;;;;10332021;28;20226;-77
2021/12/20 08:52:53;;;;;;;16.07;13.60;;;7.10;48.50;;;;;;10330513;28;20246;-77
2021/12/20 08:57:58;;;;;;;19.30;14.60;;;7.10;48.50;;;;;;10330900;28;20230;-77
2021/12/20 09:03:02;;;;;;;14.77;11.97;;;7.10;48.50;;;;;;10325969;28;20798;-76
2021/12/20 09:08:07;;;;;;;16.87;13.60;;;7.10;48.50;;;;;;10327769;28;20242;-77
2021/12/20 09:13:12;;;;;;;16.53;14.03;;;7.10;48.40;;;;;;10323430;28;20238;-76
2021/12/20 09:18:15;;;;;;;19.57;13.97;;;7.10;48.70;;;;;;10328146;28;20245;-78
2021/12/20 09:23:18;;;;;;;15.93;13.43;;;7.10;48.60;;;;;;10312981;28;20234;-75
2021/12/20 09:28:23;;;;;;;16.77;13.13;;;7.10;48.60;;;;;;10309842;28;20243;-75
2021/12/20 09:33:26;;;;;;;15.93;12.17;;;7.10;48.60;;;;;;10311159;28;20231;-75
2021/12/20 09:38:31;;;;;;;14.33;11.13;;;7.10;48.70;;;;;;10310456;28;20722;-76
2021/12/20 09:43:38;;;;;;;13.33;9.93;;;7.20;49.20;;;;;;10313670;28;20242;-77
2021/12/20 09:48:45;;;;;;;11.00;8.57;;;7.30;49.00;;;;;;10312972;28;20238;-74
2021/12/20 09:53:48;;;;;;;9.97;7.03;;;7.30;49.30;;;;;;10313957;28;20238;-77
2021/12/20 09:58:54;;;;;;;9.77;6.43;;;7.50;49.40;;;;;;10320809;28;20740;-76
2021/12/20 10:03:59;;;;;;;7.00;5.87;;;7.70;48.90;;;;;;10318212;28;20258;-77
2021/12/20 10:09:11;;;;;;;12.80;8.93;;;7.90;48.50;;;;;;10316147;28;20230;-78
2021/12/20 10:14:17;;;;;;;12.40;8.17;;;8.00;48.10;;;;;;10314558;28;20250;-78
2021/12/20 10:19:31;;;;;;;12.27;7.87;;;8.00;46.90;;;;;;10314213;28;20235;-76
2021/12/20 10:24:36;;;;;;;8.97;8.07;;;8.00;47.00;;;;;;10318044;28;20752;-76
2021/12/20 10:29:41;;;;;;;8.43;6.67;;;8.10;47.80;;;;;;10321171;28;20708;-76
2021/12/20 10:34:45;;;;;;;7.33;4.90;;;8.10;47.70;;;;;;10314756;28;20231;-76
2021/12/20 10:39:49;;;;;;;5.93;5.03;;;8.20;47.40;;;;;;10317728;28;20224;-76
2021/12/20 10:45:09;;;;;;;6.27;4.70;;;8.40;47.60;;;;;;10317129;28;20224;-77
2021/12/20 10:50:42;;;;;;;6.53;5.03;;;8.50;45.60;;;;;;10321436;28;20258;-77
2021/12/20 10:55:48;;;;;;;8.80;5.53;;;8.70;45.20;;;;;;10297477;28;20230;-77
2021/12/20 11:01:15;;;;;;;8.13;6.00;;;8.70;45.80;;;;;;10308833;28;20243;-78
2021/12/20 11:06:40;;;;;;;8.03;4.80;;;8.70;45.00;;;;;;10311516;28;20245;-76
2021/12/20 11:11:48;;;;;;;5.70;4.80;;;8.70;46.60;;;;;;10313418;28;20229;-77
2021/12/20 11:16:55;;;;;;;5.73;4.17;;;8.80;45.80;;;;;;10315881;28;20240;-76
2021/12/20 11:22:05;;;;;;;7.40;4.10;;;8.80;45.90;;;;;;10313647;28;20247;-76
2021/12/20 11:27:11;;;;;;;4.77;3.50;;;8.90;44.20;;;;;;10320312;28;20632;-76
2021/12/20 11:32:16;;;;;;;4.90;3.50;;;9.00;45.30;;;;;;10322477;28;20245;-76
2021/12/20 11:37:22;;;;;;;3.50;3.03;;;9.10;45.30;;;;;;10315815;28;20231;-77
2021/12/20 11:42:25;;;;;;;5.33;2.50;;;9.10;45.00;;;;;;10307761;28;20246;-76
2021/12/20 11:47:35;;;;;;;3.97;2.20;;;9.10;44.80;;;;;;10320191;28;20728;-76
2021/12/20 11:52:39;;;;;;;3.87;2.17;;;9.20;43.90;;;;;;10318622;28;20258;-77
2021/12/20 11:57:44;;;;;;;3.83;2.30;;;9.20;44.20;;;;;;10310347;28;20583;-77
2021/12/20 12:03:02;;;;;;;4.77;1.73;;;9.10;44.20;;;;;;10298030;28;20235;-80
2021/12/20 12:08:36;;;;;;;4.43;2.00;;;9.10;42.70;;;;;;10306202;28;20230;-78
2021/12/20 12:14:06;;;;;;;4.43;2.20;;;9.10;41.20;;;;;;10303605;28;20230;-77
2021/12/20 12:19:10;;;;;;;3.77;2.10;;;9.10;41.70;;;;;;10311796;28;20703;-77
2021/12/20 12:24:16;;;;;;;5.00;1.93;;;9.00;42.70;;;;;;10314708;28;20232;-77
2021/12/20 12:29:22;;;;;;;3.43;1.73;;;9.00;42.30;;;;;;10309682;28;20237;-78
2021/12/20 12:34:39;;;;;;;4.03;1.73;;;9.00;43.10;;;;;;10314238;28;20239;-76
2021/12/20 12:39:43;;;;;;;2.87;1.60;;;9.00;40.30;;;;;;10305886;28;20273;-78
2021/12/20 12:44:51;;;;;;;3.13;1.80;;;9.00;42.20;;;;;;10314428;28;20280;-77
2021/12/20 12:49:57;;;;;;;3.00;1.63;;;9.00;40.10;;;;;;10313587;28;20222;-77
2021/12/20 12:55:03;;;;;;;7.80;2.03;;;9.00;41.20;;;;;;10318082;28;20262;-78
2021/12/20 13:00:14;;;;;;;3.23;1.80;;;8.90;41.30;;;;;;10330423;28;20222;-77
2021/12/20 13:05:22;;;;;;;5.73;2.10;;;8.80;41.10;;;;;;10321388;28;20236;-77
2021/12/20 13:10:32;;;;;;;6.73;2.17;;;8.80;40.90;;;;;;10310437;28;20230;-77
2021/12/20 13:15:40;;;;;;;5.07;1.70;;;8.80;41.30;;;;;;10318483;28;20244;-77
2021/12/20 13:20:50;;;;;;;3.37;1.80;;;8.70;41.50;;;;;;10315514;28;20792;-82
2021/12/20 13:25:55;;;;;;;2.07;1.40;;;8.60;41.20;;;;;;10315241;28;20231;-78
2021/12/20 13:31:00;;;;;;;3.83;1.80;;;8.60;42.00;;;;;;10322059;28;20288;-77
2021/12/20 13:36:08;;;;;;;3.57;1.83;;;8.60;42.00;;;;;;10323675;28;20281;-78
2021/12/20 13:41:15;;;;;;;3.13;1.90;;;8.50;41.40;;;;;;10316459;28;20230;-78
2021/12/20 13:46:38;;;;;;;4.23;1.60;;;8.60;41.90;;;;;;10309588;28;20243;-77
2021/12/20 13:51:45;;;;;;;2.07;1.67;;;8.60;41.00;;;;;;10307921;28;20235;-78
2021/12/20 13:56:57;;;;;;;3.03;1.80;;;8.60;40.90;;;;;;10314783;28;20235;-78
2021/12/20 14:02:02;;;;;;;5.13;1.70;;;8.60;40.00;;;;;;10315691;28;21340;-78
2021/12/20 14:07:23;;;;;;;2.50;1.57;;;8.60;41.20;;;;;;10321809;28;20278;-78
2021/12/20 14:12:34;;;;;;;4.47;2.00;;;8.60;40.80;;;;;;10317260;28;21083;-77
2021/12/20 14:17:58;;;;;;;3.87;1.80;;;8.70;39.80;;;;;;10327635;28;20234;-77
2021/12/20 14:23:06;;;;;;;2.03;1.53;;;8.70;39.80;;;;;;10337040;28;20240;-77
2021/12/20 14:28:12;;;;;;;2.77;1.53;;;8.70;41.10;;;;;;10335297;28;20321;-77
2021/12/20 14:33:21;;;;;;;5.43;1.70;;;8.70;41.30;;;;;;10337656;28;20301;-76
2021/12/20 14:38:41;;;;;;;2.67;1.60;;;8.70;40.60;;;;;;10339250;28;20235;-77
2021/12/20 14:43:46;;;;;;;5.17;2.33;;;8.70;39.80;;;;;;10333642;28;20240;-77
2021/12/20 14:48:54;;;;;;;6.17;4.00;;;8.70;40.60;;;;;;10336729;28;20262;-77
2021/12/20 14:54:14;;;;;;;8.77;4.67;;;8.60;41.20;;;;;;10324122;28;20890;-77
2021/12/20 14:59:18;;;;;;;5.57;4.47;;;8.60;41.40;;;;;;10328230;28;20244;-78
2021/12/20 15:04:22;;;;;;;5.60;4.13;;;8.70;42.50;;;;;;10330078;28;20243;-77
2021/12/20 15:09:29;;;;;;;11.03;5.80;;;8.80;42.40;;;;;;10325589;28;20234;-77
2021/12/20 15:14:32;;;;;;;9.10;6.03;;;8.70;41.10;;;;;;10330042;28;20263;-77
2021/12/20 15:19:36;;;;;;;9.33;5.23;;;8.60;41.70;;;;;;10321348;28;20278;-77
2021/12/20 15:24:41;;;;;;;8.57;3.10;;;8.50;41.40;;;;;;10326597;28;20230;-76
2021/12/20 15:29:45;;;;;;;4.97;2.40;;;8.40;41.00;;;;;;10334039;28;20273;-78
2021/12/20 15:34:49;;;;;;;2.40;1.93;;;8.30;43.40;;;;;;10332999;28;20262;-76
2021/12/20 15:39:54;;;;;;;3.30;2.07;;;8.30;43.00;;;;;;10328898;28;20261;-76
2021/12/20 15:44:57;;;;;;;3.23;2.17;;;8.30;42.40;;;;;;10331038;28;20724;-76
2021/12/20 15:50:00;;;;;;;5.87;2.33;;;8.30;42.00;;;;;;10333246;28;20231;-76
2021/12/20 15:55:05;;;;;;;2.50;1.90;;;8.20;41.70;;;;;;10330181;28;20235;-76
2021/12/20 16:00:10;;;;;;;3.63;2.50;;;8.10;41.30;;;;;;10331437;28;20230;-75
2021/12/20 16:05:13;;;;;;;3.10;2.80;;;8.00;41.00;;;;;;10351174;28;20238;-76
2021/12/20 16:10:19;;;;;;;5.87;4.53;;;7.80;40.90;;;;;;10318033;28;20227;-77
2021/12/20 16:15:22;;;;;;;7.70;5.83;;;7.70;40.60;;;;;;10310501;28;20725;-76
2021/12/20 16:20:26;;;;;;;6.10;4.63;;;7.50;40.90;;;;;;10308525;28;20231;-76
2021/12/20 16:25:30;;;;;;;5.13;4.37;;;7.40;41.00;;;;;;10318397;28;20325;-76
2021/12/20 16:30:34;;;;;;;7.93;5.03;;;7.30;41.00;;;;;;10319678;28;20227;-76
2021/12/20 16:35:37;;;;;;;10.30;5.80;;;7.20;41.30;;;;;;10324750;28;20223;-75
2021/12/20 16:40:42;;;;;;;8.83;6.90;;;7.20;43.30;;;;;;10328365;28;20233;-76
2021/12/20 16:45:52;;;;;;;5.37;4.60;;;7.20;45.10;;;;;;10329624;28;20634;-76
2021/12/20 16:51:06;;;;;;;5.60;4.43;;;7.40;43.90;;;;;;10321014;28;20246;-75
2021/12/20 16:56:10;;;;;;;6.47;4.83;;;7.50;42.50;;;;;;10316909;28;20272;-76
2021/12/20 17:01:15;;;;;;;6.90;5.10;;;7.50;41.80;;;;;;10322726;28;20256;-76
2021/12/20 17:06:18;;;;;;;6.27;5.50;;;7.50;41.70;;;;;;10330503;28;20293;-76
2021/12/20 17:11:23;;;;;;;7.60;6.13;;;7.40;41.50;;;;;;10321748;28;20234;-75
2021/12/20 17:16:26;;;;;;;12.20;10.00;;;7.20;41.20;;;;;;10332257;28;20239;-76
2021/12/20 17:21:30;;;;;;;11.60;9.70;;;7.20;42.00;;;;;;10325047;28;20246;-77
2021/12/20 17:26:35;;;;;;;13.67;11.47;;;7.10;41.60;;;;;;10342529;28;20230;-76
2021/12/20 17:31:38;;;;;;;15.30;12.57;;;7.00;41.20;;;;;;10330213;28;20223;-77
2021/12/20 17:36:41;;;;;;;12.80;9.07;;;6.90;41.30;;;;;;10344104;28;20231;-76
2021/12/20 17:41:45;;;;;;;10.57;9.33;;;6.90;41.30;;;;;;10337972;28;20937;-76
2021/12/20 17:46:49;;;;;;;9.37;8.07;;;6.80;41.10;;;;;;10328523;28;20247;-76
2021/12/20 17:51:53;;;;;;;10.03;7.37;;;6.60;41.20;;;;;;10332168;28;20253;-77
2021/12/20 17:56:58;;;;;;;8.37;6.40;;;6.60;41.20;;;;;;10329449;28;20330;-76
2021/12/20 18:02:02;;;;;;;7.40;6.40;;;6.50;41.10;;;;;;10326155;28;20323;-77
2021/12/20 18:07:05;;;;;;;6.63;5.40;;;6.40;41.30;;;;;;10325242;28;20241;-77
2021/12/20 18:12:10;;;;;;;7.90;5.07;;;6.30;41.20;;;;;;10339449;28;20806;-77
2021/12/20 18:17:14;;;;;;;8.23;4.47;;;6.20;40.70;;;;;;10332086;28;20567;-77
2021/12/20 18:22:19;;;;;;;7.03;4.90;;;6.10;41.00;;;;;;10334751;28;20320;-76
2021/12/20 18:27:23;;;;;;;8.00;5.03;;;6.00;40.90;;;;;;10328694;28;21090;-77
2021/12/20 18:32:27;;;;;;;7.60;5.73;;;5.90;41.40;;;;;;10320327;28;20631;-78
2021/12/20 18:37:30;;;;;;;9.40;6.83;;;5.90;41.40;;;;;;10333184;28;20258;-77
2021/12/20 18:42:35;;;;;;;21.53;15.87;;;5.80;41.30;;;;;;10336265;28;20234;-78
2021/12/20 18:47:38;;;;;;;10.43;9.17;;;5.70;41.20;;;;;;10334703;28;20227;-77
2021/12/20 18:52:42;;;;;;;9.47;8.40;;;5.60;41.20;;;;;;10322173;28;20616;-77
2021/12/20 18:58:03;;;;;;;9.10;8.20;;;5.60;41.40;;;;;;10322780;28;20239;-77
2021/12/20 19:03:06;;;;;;;10.27;8.53;;;5.50;41.20;;;;;;10325185;28;20325;-78
2021/12/20 19:08:31;;;;;;;9.87;8.40;;;5.50;41.40;;;;;;10330615;28;20234;-77
2021/12/20 19:13:47;;;;;;;9.20;8.27;;;5.40;41.30;;;;;;10346198;28;20310;-77
2021/12/20 19:18:50;;;;;;;11.50;9.07;;;5.30;41.10;;;;;;10320866;28;20242;-77
2021/12/20 19:23:53;;;;;;;9.90;8.67;;;5.30;41.20;;;;;;10319642;28;20245;-76
2021/12/20 19:28:59;;;;;;;8.03;7.23;;;5.20;41.10;;;;;;10329973;28;20243;-77
2021/12/20 19:34:03;;;;;;;9.87;7.37;;;5.20;41.10;;;;;;10323526;28;20608;-77
2021/12/20 19:39:10;;;;;;;12.03;8.00;;;5.10;41.10;;;;;;10332578;28;20290;-77
2021/12/20 19:44:15;;;;;;;9.67;7.67;;;5.00;41.20;;;;;;10329383;28;20236;-76
2021/12/20 19:49:20;;;;;;;8.87;7.47;;;4.90;41.30;;;;;;10321696;28;20222;-76
2021/12/20 19:54:24;;;;;;;11.00;8.60;;;4.90;41.50;;;;;;10326901;28;20235;-75
2021/12/20 19:59:29;;;;;;;7.93;7.13;;;4.80;41.50;;;;;;10324375;28;20242;-75
2021/12/20 20:04:35;;;;;;;9.83;8.17;;;4.80;41.20;;;;;;10317296;28;20777;-75
2021/12/20 20:09:40;;;;;;;15.57;11.97;;;4.70;41.20;;;;;;10306422;28;20231;-76
2021/12/20 20:14:44;;;;;;;12.27;10.10;;;4.70;41.20;;;;;;10308229;28;20241;-75
2021/12/20 20:19:48;;;;;;;14.97;12.13;;;4.70;41.10;;;;;;10321966;28;20240;-75
2021/12/20 20:24:56;;;;;;;15.40;12.27;;;4.70;41.30;;;;;;10310260;28;20272;-74
2021/12/20 20:30:03;;;;;;;14.67;10.27;;;4.50;41.10;;;;;;10324040;28;20235;-74
2021/12/20 20:35:07;;;;;;;13.70;11.13;;;4.50;41.10;;;;;;10329438;28;20230;-77
2021/12/20 20:40:11;;;;;;;13.90;11.47;;;4.40;41.10;;;;;;10320882;28;20241;-75
2021/12/20 20:45:15;;;;;;;10.60;9.00;;;4.30;41.10;;;;;;10327580;28;20241;-77
2021/12/20 20:50:19;;;;;;;9.77;7.70;;;4.30;41.10;;;;;;10328448;28;20234;-77
2021/12/20 20:55:22;;;;;;;8.43;7.23;;;4.20;41.20;;;;;;10324716;28;20239;-76
2021/12/20 21:05:48;;;;;;;10.97;9.63;;;4.10;41.20;;;;;;10322923;28;20232;-76
2021/12/20 21:10:51;;;;;;;9.47;8.37;;;4.10;41.40;;;;;;10325220;28;20230;-75
2021/12/20 21:15:56;;;;;;;10.80;9.20;;;4.10;41.50;;;;;;10339311;28;20326;-73
2021/12/20 21:20:59;;;;;;;10.23;9.10;;;4.00;41.30;;;;;;10334025;28;20245;-73
2021/12/20 21:26:03;;;;;;;10.50;8.50;;;4.00;41.10;;;;;;10327086;28;20235;-73
2021/12/20 21:31:08;;;;;;;9.83;8.83;;;4.00;41.20;;;;;;10347531;28;20240;-74
2021/12/20 21:36:11;;;;;;;9.10;7.43;;;3.90;41.00;;;;;;10338504;28;20245;-74
2021/12/20 21:41:15;;;;;;;9.87;7.43;;;3.80;41.20;;;;;;10335996;28;20226;-74
2021/12/20 21:46:20;;;;;;;10.47;9.37;;;4.00;41.40;;;;;;10358747;28;20713;-76
2021/12/20 21:51:23;;;;;;;10.90;9.23;;;3.80;41.10;;;;;;10337098;28;20232;-72
2021/12/20 21:56:26;;;;;;;11.70;9.90;;;3.70;41.10;;;;;;10332472;28;20243;-74
2021/12/20 22:01:31;;;;;;;13.00;10.53;;;3.80;41.10;;;;;;10326844;28;20266;-74
2021/12/20 22:06:34;;;;;;;11.50;9.77;;;3.60;41.00;;;;;;10332518;28;20321;-73
2021/12/20 22:11:37;;;;;;;16.30;11.43;;;3.60;41.20;;;;;;10331581;28;20223;-73
2021/12/20 22:16:42;;;;;;;12.47;10.47;;;3.50;41.20;;;;;;10326865;28;20234;-73
2021/12/20 22:21:46;;;;;;;12.20;10.47;;;3.50;40.90;;;;;;10309857;28;20237;-73
2021/12/20 22:26:50;;;;;;;11.40;10.20;;;3.50;41.00;;;;;;10314576;28;20234;-72
2021/12/20 22:31:54;;;;;;;11.80;9.63;;;3.40;41.10;;;;;;10316694;28;20227;-73
2021/12/20 22:37:00;;;;;;;14.00;10.20;;;3.40;41.00;;;;;;10317214;28;20232;-73
2021/12/20 22:42:04;;;;;;;11.13;9.10;;;3.40;40.90;;;;;;10318006;28;20230;-72
2021/12/20 22:47:08;;;;;;;13.70;10.77;;;3.30;41.00;;;;;;10327668;28;20230;-73
2021/12/20 22:52:11;;;;;;;10.83;9.73;;;3.30;41.00;;;;;;10331859;28;20367;-71
2021/12/20 22:57:15;;;;;;;11.60;9.17;;;3.20;41.00;;;;;;10322993;28;20659;-71
2021/12/20 23:02:19;;;;;;;12.77;9.07;;;3.30;41.30;;;;;;10324116;28;20239;-73
2021/12/20 23:07:24;;;;;;;9.90;7.93;;;3.20;40.80;;;;;;10326755;28;20242;-72
2021/12/20 23:12:34;;;;;;;13.23;8.83;;;3.10;41.00;;;;;;10329601;28;20249;-72
2021/12/20 23:17:39;;;;;;;10.73;8.60;;;3.00;41.10;;;;;;10341167;28;20229;-72
2021/12/20 23:22:48;;;;;;;12.10;9.13;;;3.10;41.20;;;;;;10328787;28;20234;-71
2021/12/20 23:27:52;;;;;;;9.20;7.43;;;2.90;40.80;;;;;;10310116;28;20235;-73
2021/12/20 23:32:59;;;;;;;9.73;7.90;;;2.90;41.00;;;;;;10319595;28;20235;-73
2021/12/20 23:38:05;;;;;;;9.33;7.77;;;2.80;41.60;;;;;;10335030;28;20234;-72
2021/12/20 23:43:17;;;;;;;9.97;7.60;;;2.70;40.90;;;;;;10360561;28;20265;-72
2021/12/20 23:48:23;;;;;;;9.57;8.00;;;2.70;40.90;;;;;;10327261;28;20240;-72
2021/12/20 23:53:27;;;;;;;11.77;8.30;;;2.70;40.90;;;;;;10309007;28;20235;-73
2021/12/20 23:58:31;;;;;;;8.63;7.63;;;2.60;40.80;;;;;;10331080;28;20236;-72
